sensor_id;sensor_type;location;lat;lon;timestamp;P1;durP1;ratioP1;P2;durP2;ratioP2
26574;SDS011;67165;50.256;10.978;2023-04-25T00:01:13;19.05;;;13.25;;
26574;SDS011;67165;50.256;10.978;2023-04-25T00:03:42;20.35;;;13.52;;
26574;SDS011;67165;50.256;10.978;2023-04-25T00:06:13;20.63;;;13.20;;
26574;SDS011;67165;50.256;10.978;2023-04-25T00:08:39;17.73;;;13.43;;
26574;SDS011;67165;50.256;10.978;2023-04-25T00:11:05;18.27;;;13.32;;
26574;SDS011;67165;50.256;10.978;2023-04-25T00:13:31;20.48;;;12.85;;
26574;SDS011;67165;50.256;10.978;2023-04-25T00:15:57;16.08;;;12.45;;
26574;SDS011;67165;50.256;10.978;2023-04-25T00:18:23;16.73;;;11.95;;
26574;SDS011;67165;50.256;10.978;2023-04-25T00:20:49;15.60;;;10.90;;
26574;SDS011;67165;50.256;10.978;2023-04-25T00:23:15;15.80;;;10.80;;
26574;SDS011;67165;50.256;10.978;2023-04-25T00:25:48;14.32;;;9.63;;
26574;SDS011;67165;50.256;10.978;2023-04-25T00:28:15;13.70;;;10.77;;
26574;SDS011;67165;50.256;10.978;2023-04-25T00:30:41;14.60;;;9.82;;
26574;SDS011;67165;50.256;10.978;2023-04-25T00:33:07;13.50;;;9.90;;
26574;SDS011;67165;50.256;10.978;2023-04-25T00:35:34;12.82;;;9.38;;
26574;SDS011;67165;50.256;10.978;2023-04-25T00:38:00;14.38;;;9.38;;
26574;SDS011;67165;50.256;10.978;2023-04-25T00:40:28;15.80;;;9.85;;
26574;SDS011;67165;50.256;10.978;2023-04-25T00:42:56;12.10;;;9.38;;
26574;SDS011;67165;50.256;10.978;2023-04-25T00:45:22;11.73;;;9.65;;
26574;SDS011;67165;50.256;10.978;2023-04-25T00:47:52;14.95;;;9.45;;
26574;SDS011;67165;50.256;10.978;2023-04-25T00:50:21;11.77;;;9.27;;
26574;SDS011;67165;50.256;10.978;2023-04-25T00:52:47;14.57;;;10.00;;
26574;SDS011;67165;50.256;10.978;2023-04-25T00:55:13;12.20;;;8.63;;
26574;SDS011;67165;50.256;10.978;2023-04-25T00:57:42;12.23;;;8.85;;
26574;SDS011;67165;50.256;10.978;2023-04-25T01:00:08;12.48;;;8.88;;
26574;SDS011;67165;50.256;10.978;2023-04-25T01:02:36;12.57;;;9.13;;
26574;SDS011;67165;50.256;10.978;2023-04-25T01:05:02;12.98;;;9.63;;
26574;SDS011;67165;50.256;10.978;2023-04-25T01:07:29;14.05;;;9.60;;
26574;SDS011;67165;50.256;10.978;2023-04-25T01:09:57;11.40;;;9.45;;
26574;SDS011;67165;50.256;10.978;2023-04-25T01:12:23;13.00;;;10.02;;
26574;SDS011;67165;50.256;10.978;2023-04-25T01:14:52;14.30;;;9.88;;
26574;SDS011;67165;50.256;10.978;2023-04-25T01:17:27;12.63;;;9.68;;
26574;SDS011;67165;50.256;10.978;2023-04-25T01:19:56;13.77;;;9.70;;
26574;SDS011;67165;50.256;10.978;2023-04-25T01:22:22;14.32;;;9.57;;
26574;SDS011;67165;50.256;10.978;2023-04-25T01:24:51;12.60;;;10.00;;
26574;SDS011;67165;50.256;10.978;2023-04-25T01:27:29;14.02;;;9.82;;
26574;SDS011;67165;50.256;10.978;2023-04-25T01:29:58;12.07;;;9.52;;
26574;SDS011;67165;50.256;10.978;2023-04-25T01:32:25;12.32;;;9.57;;
26574;SDS011;67165;50.256;10.978;2023-04-25T01:34:56;14.13;;;9.65;;
26574;SDS011;67165;50.256;10.978;2023-04-25T01:37:27;13.57;;;9.82;;
26574;SDS011;67165;50.256;10.978;2023-04-25T01:39:53;15.85;;;10.20;;
26574;SDS011;67165;50.256;10.978;2023-04-25T01:42:21;11.57;;;9.68;;
26574;SDS011;67165;50.256;10.978;2023-04-25T01:44:47;13.23;;;9.85;;
26574;SDS011;67165;50.256;10.978;2023-04-25T01:47:13;13.75;;;9.70;;
26574;SDS011;67165;50.256;10.978;2023-04-25T01:49:39;13.73;;;10.38;;
26574;SDS011;67165;50.256;10.978;2023-04-25T01:52:08;19.23;;;11.60;;
26574;SDS011;67165;50.256;10.978;2023-04-25T01:54:33;16.38;;;11.10;;
26574;SDS011;67165;50.256;10.978;2023-04-25T01:57:02;13.68;;;10.75;;
26574;SDS011;67165;50.256;10.978;2023-04-25T01:59:28;13.13;;;10.13;;
26574;SDS011;67165;50.256;10.978;2023-04-25T02:01:54;13.73;;;10.75;;
26574;SDS011;67165;50.256;10.978;2023-04-25T02:04:27;16.15;;;11.73;;
26574;SDS011;67165;50.256;10.978;2023-04-25T02:06:53;18.52;;;12.30;;
26574;SDS011;67165;50.256;10.978;2023-04-25T02:09:21;17.77;;;13.60;;
26574;SDS011;67165;50.256;10.978;2023-04-25T02:11:51;17.63;;;12.00;;
26574;SDS011;67165;50.256;10.978;2023-04-25T02:14:16;18.20;;;12.38;;
26574;SDS011;67165;50.256;10.978;2023-04-25T02:16:42;15.43;;;11.75;;
26574;SDS011;67165;50.256;10.978;2023-04-25T02:19:11;13.40;;;10.45;;
26574;SDS011;67165;50.256;10.978;2023-04-25T02:21:40;14.50;;;10.30;;
26574;SDS011;67165;50.256;10.978;2023-04-25T02:24:06;16.02;;;11.57;;
26574;SDS011;67165;50.256;10.978;2023-04-25T02:26:37;18.30;;;11.30;;
26574;SDS011;67165;50.256;10.978;2023-04-25T02:29:09;15.48;;;10.88;;
26574;SDS011;67165;50.256;10.978;2023-04-25T02:31:38;16.15;;;11.05;;
26574;SDS011;67165;50.256;10.978;2023-04-25T02:34:06;14.80;;;10.90;;
26574;SDS011;67165;50.256;10.978;2023-04-25T02:36:32;21.77;;;11.77;;
26574;SDS011;67165;50.256;10.978;2023-04-25T02:38:59;15.57;;;11.02;;
26574;SDS011;67165;50.256;10.978;2023-04-25T02:41:28;17.20;;;11.50;;
26574;SDS011;67165;50.256;10.978;2023-04-25T02:43:56;14.98;;;11.55;;
26574;SDS011;67165;50.256;10.978;2023-04-25T02:46:22;16.42;;;11.65;;
26574;SDS011;67165;50.256;10.978;2023-04-25T02:48:50;15.23;;;11.52;;
26574;SDS011;67165;50.256;10.978;2023-04-25T02:51:16;17.02;;;11.90;;
26574;SDS011;67165;50.256;10.978;2023-04-25T02:53:41;17.75;;;11.70;;
26574;SDS011;67165;50.256;10.978;2023-04-25T02:56:07;15.80;;;11.98;;
26574;SDS011;67165;50.256;10.978;2023-04-25T02:58:33;19.95;;;11.80;;
26574;SDS011;67165;50.256;10.978;2023-04-25T03:00:59;17.77;;;11.93;;
26574;SDS011;67165;50.256;10.978;2023-04-25T03:03:25;20.85;;;11.90;;
26574;SDS011;67165;50.256;10.978;2023-04-25T03:05:51;20.42;;;12.88;;
26574;SDS011;67165;50.256;10.978;2023-04-25T03:08:17;18.33;;;12.90;;
26574;SDS011;67165;50.256;10.978;2023-04-25T03:10:43;19.88;;;12.50;;
26574;SDS011;67165;50.256;10.978;2023-04-25T03:13:09;20.10;;;14.02;;
26574;SDS011;67165;50.256;10.978;2023-04-25T03:15:35;17.48;;;13.55;;
26574;SDS011;67165;50.256;10.978;2023-04-25T03:18:01;19.80;;;13.65;;
26574;SDS011;67165;50.256;10.978;2023-04-25T03:20:27;20.70;;;14.23;;
26574;SDS011;67165;50.256;10.978;2023-04-25T03:22:53;20.08;;;13.23;;
26574;SDS011;67165;50.256;10.978;2023-04-25T03:25:19;18.23;;;13.27;;
26574;SDS011;67165;50.256;10.978;2023-04-25T03:27:45;18.42;;;12.55;;
26574;SDS011;67165;50.256;10.978;2023-04-25T03:30:11;18.60;;;12.30;;
26574;SDS011;67165;50.256;10.978;2023-04-25T03:32:37;17.55;;;12.27;;
26574;SDS011;67165;50.256;10.978;2023-04-25T03:35:02;16.55;;;11.48;;
26574;SDS011;67165;50.256;10.978;2023-04-25T03:37:28;13.75;;;10.05;;
26574;SDS011;67165;50.256;10.978;2023-04-25T03:39:54;11.90;;;8.95;;
26574;SDS011;67165;50.256;10.978;2023-04-25T03:42:20;12.90;;;8.75;;
26574;SDS011;67165;50.256;10.978;2023-04-25T03:44:47;9.93;;;8.70;;
26574;SDS011;67165;50.256;10.978;2023-04-25T03:47:13;10.95;;;8.65;;
26574;SDS011;67165;50.256;10.978;2023-04-25T03:49:39;11.63;;;9.10;;
26574;SDS011;67165;50.256;10.978;2023-04-25T03:52:06;11.88;;;9.25;;
26574;SDS011;67165;50.256;10.978;2023-04-25T03:54:32;12.82;;;8.82;;
26574;SDS011;67165;50.256;10.978;2023-04-25T03:56:57;12.05;;;8.90;;
26574;SDS011;67165;50.256;10.978;2023-04-25T03:59:23;11.73;;;9.18;;
26574;SDS011;67165;50.256;10.978;2023-04-25T04:01:51;11.68;;;9.18;;
26574;SDS011;67165;50.256;10.978;2023-04-25T04:04:17;12.35;;;9.15;;
26574;SDS011;67165;50.256;10.978;2023-04-25T04:06:43;11.23;;;9.10;;
26574;SDS011;67165;50.256;10.978;2023-04-25T04:09:09;11.90;;;9.40;;
26574;SDS011;67165;50.256;10.978;2023-04-25T04:11:36;11.13;;;8.80;;
26574;SDS011;67165;50.256;10.978;2023-04-25T04:14:04;11.73;;;9.63;;
26574;SDS011;67165;50.256;10.978;2023-04-25T04:16:33;12.50;;;10.48;;
26574;SDS011;67165;50.256;10.978;2023-04-25T04:19:02;14.02;;;10.10;;
26574;SDS011;67165;50.256;10.978;2023-04-25T04:21:30;13.85;;;11.02;;
26574;SDS011;67165;50.256;10.978;2023-04-25T04:23:56;12.38;;;9.75;;
26574;SDS011;67165;50.256;10.978;2023-04-25T04:26:22;13.55;;;10.68;;
26574;SDS011;67165;50.256;10.978;2023-04-25T04:28:49;14.15;;;11.23;;
26574;SDS011;67165;50.256;10.978;2023-04-25T04:31:16;16.05;;;11.75;;
26574;SDS011;67165;50.256;10.978;2023-04-25T04:33:44;15.38;;;11.05;;
26574;SDS011;67165;50.256;10.978;2023-04-25T04:36:10;12.82;;;10.60;;
26574;SDS011;67165;50.256;10.978;2023-04-25T04:38:39;14.68;;;11.30;;
26574;SDS011;67165;50.256;10.978;2023-04-25T04:41:06;17.25;;;12.50;;
26574;SDS011;67165;50.256;10.978;2023-04-25T04:43:32;16.05;;;12.75;;
26574;SDS011;67165;50.256;10.978;2023-04-25T04:45:58;18.13;;;12.65;;
26574;SDS011;67165;50.256;10.978;2023-04-25T04:48:28;15.13;;;12.05;;
26574;SDS011;67165;50.256;10.978;2023-04-25T04:50:57;14.07;;;11.68;;
26574;SDS011;67165;50.256;10.978;2023-04-25T04:53:26;15.32;;;11.90;;
26574;SDS011;67165;50.256;10.978;2023-04-25T04:55:52;14.70;;;10.80;;
26574;SDS011;67165;50.256;10.978;2023-04-25T04:58:18;12.70;;;10.45;;
26574;SDS011;67165;50.256;10.978;2023-04-25T05:00:44;17.75;;;14.02;;
26574;SDS011;67165;50.256;10.978;2023-04-25T05:03:10;17.50;;;14.23;;
26574;SDS011;67165;50.256;10.978;2023-04-25T05:05:36;17.95;;;13.65;;
26574;SDS011;67165;50.256;10.978;2023-04-25T05:08:04;16.63;;;13.35;;
26574;SDS011;67165;50.256;10.978;2023-04-25T05:10:31;18.90;;;13.27;;
26574;SDS011;67165;50.256;10.978;2023-04-25T05:12:56;18.40;;;12.77;;
26574;SDS011;67165;50.256;10.978;2023-04-25T05:15:22;17.10;;;12.73;;
26574;SDS011;67165;50.256;10.978;2023-04-25T05:17:48;15.60;;;12.00;;
26574;SDS011;67165;50.256;10.978;2023-04-25T05:20:13;17.45;;;12.55;;
26574;SDS011;67165;50.256;10.978;2023-04-25T05:22:39;15.45;;;11.88;;
26574;SDS011;67165;50.256;10.978;2023-04-25T05:25:10;16.40;;;12.43;;
26574;SDS011;67165;50.256;10.978;2023-04-25T05:27:35;16.10;;;12.00;;
26574;SDS011;67165;50.256;10.978;2023-04-25T05:30:01;15.88;;;12.40;;
26574;SDS011;67165;50.256;10.978;2023-04-25T05:32:27;17.38;;;12.63;;
26574;SDS011;67165;50.256;10.978;2023-04-25T05:34:53;18.25;;;13.00;;
26574;SDS011;67165;50.256;10.978;2023-04-25T05:37:21;18.20;;;13.45;;
26574;SDS011;67165;50.256;10.978;2023-04-25T05:39:46;20.25;;;13.73;;
26574;SDS011;67165;50.256;10.978;2023-04-25T05:42:12;18.77;;;13.50;;
26574;SDS011;67165;50.256;10.978;2023-04-25T05:44:38;19.83;;;13.77;;
26574;SDS011;67165;50.256;10.978;2023-04-25T05:47:04;21.83;;;14.32;;
26574;SDS011;67165;50.256;10.978;2023-04-25T05:49:30;20.83;;;14.43;;
26574;SDS011;67165;50.256;10.978;2023-04-25T05:51:55;18.73;;;13.85;;
26574;SDS011;67165;50.256;10.978;2023-04-25T05:54:21;18.02;;;12.38;;
26574;SDS011;67165;50.256;10.978;2023-04-25T05:56:47;17.35;;;12.70;;
26574;SDS011;67165;50.256;10.978;2023-04-25T05:59:12;15.35;;;11.52;;
26574;SDS011;67165;50.256;10.978;2023-04-25T06:01:38;15.90;;;11.38;;
26574;SDS011;67165;50.256;10.978;2023-04-25T06:04:03;14.57;;;11.18;;
26574;SDS011;67165;50.256;10.978;2023-04-25T06:06:29;16.95;;;11.48;;
26574;SDS011;67165;50.256;10.978;2023-04-25T06:08:55;15.68;;;11.23;;
26574;SDS011;67165;50.256;10.978;2023-04-25T06:11:21;14.63;;;11.23;;
26574;SDS011;67165;50.256;10.978;2023-04-25T06:13:46;14.77;;;10.77;;
26574;SDS011;67165;50.256;10.978;2023-04-25T06:16:25;17.02;;;9.35;;
26574;SDS011;67165;50.256;10.978;2023-04-25T06:18:54;16.42;;;9.20;;
26574;SDS011;67165;50.256;10.978;2023-04-25T06:21:19;13.35;;;9.02;;
26574;SDS011;67165;50.256;10.978;2023-04-25T06:23:45;15.63;;;9.05;;
26574;SDS011;67165;50.256;10.978;2023-04-25T06:26:13;11.50;;;7.70;;
26574;SDS011;67165;50.256;10.978;2023-04-25T06:28:39;12.02;;;7.93;;
26574;SDS011;67165;50.256;10.978;2023-04-25T06:31:05;12.32;;;8.07;;
26574;SDS011;67165;50.256;10.978;2023-04-25T06:33:31;13.88;;;7.43;;
26574;SDS011;67165;50.256;10.978;2023-04-25T06:35:57;12.00;;;7.63;;
26574;SDS011;67165;50.256;10.978;2023-04-25T06:38:22;12.95;;;8.02;;
26574;SDS011;67165;50.256;10.978;2023-04-25T06:40:48;13.23;;;8.13;;
26574;SDS011;67165;50.256;10.978;2023-04-25T06:43:16;13.45;;;7.55;;
26574;SDS011;67165;50.256;10.978;2023-04-25T06:45:42;12.63;;;7.50;;
26574;SDS011;67165;50.256;10.978;2023-04-25T06:48:07;12.18;;;7.57;;
26574;SDS011;67165;50.256;10.978;2023-04-25T06:50:42;9.90;;;7.50;;
26574;SDS011;67165;50.256;10.978;2023-04-25T06:53:08;12.05;;;7.72;;
26574;SDS011;67165;50.256;10.978;2023-04-25T06:55:33;12.13;;;7.72;;
26574;SDS011;67165;50.256;10.978;2023-04-25T06:58:01;9.63;;;7.60;;
26574;SDS011;67165;50.256;10.978;2023-04-25T07:00:28;11.98;;;7.07;;
26574;SDS011;67165;50.256;10.978;2023-04-25T07:02:53;12.90;;;7.85;;
26574;SDS011;67165;50.256;10.978;2023-04-25T07:05:19;11.55;;;7.15;;
26574;SDS011;67165;50.256;10.978;2023-04-25T07:07:49;12.95;;;7.07;;
26574;SDS011;67165;50.256;10.978;2023-04-25T07:10:15;7.85;;;6.05;;
26574;SDS011;67165;50.256;10.978;2023-04-25T07:12:43;10.05;;;6.40;;
26574;SDS011;67165;50.256;10.978;2023-04-25T07:15:09;13.23;;;6.70;;
26574;SDS011;67165;50.256;10.978;2023-04-25T07:17:36;11.45;;;6.00;;
26574;SDS011;67165;50.256;10.978;2023-04-25T07:20:02;8.90;;;5.80;;
26574;SDS011;67165;50.256;10.978;2023-04-25T07:22:29;10.65;;;5.82;;
26574;SDS011;67165;50.256;10.978;2023-04-25T07:24:55;12.80;;;5.82;;
26574;SDS011;67165;50.256;10.978;2023-04-25T07:27:20;9.90;;;5.85;;
26574;SDS011;67165;50.256;10.978;2023-04-25T07:29:49;10.15;;;4.85;;
26574;SDS011;67165;50.256;10.978;2023-04-25T07:32:14;8.95;;;4.40;;
26574;SDS011;67165;50.256;10.978;2023-04-25T07:34:40;7.88;;;4.70;;
26574;SDS011;67165;50.256;10.978;2023-04-25T07:37:08;9.45;;;4.88;;
26574;SDS011;67165;50.256;10.978;2023-04-25T07:39:34;9.95;;;5.25;;
26574;SDS011;67165;50.256;10.978;2023-04-25T07:42:00;11.90;;;4.75;;
26574;SDS011;67165;50.256;10.978;2023-04-25T07:44:29;9.52;;;4.90;;
26574;SDS011;67165;50.256;10.978;2023-04-25T07:46:55;11.85;;;5.00;;
26574;SDS011;67165;50.256;10.978;2023-04-25T07:49:21;10.70;;;5.18;;
26574;SDS011;67165;50.256;10.978;2023-04-25T07:51:49;9.35;;;5.00;;
26574;SDS011;67165;50.256;10.978;2023-04-25T07:54:15;10.48;;;5.53;;
26574;SDS011;67165;50.256;10.978;2023-04-25T07:56:42;7.75;;;4.28;;
26574;SDS011;67165;50.256;10.978;2023-04-25T07:59:07;9.05;;;4.50;;
26574;SDS011;67165;50.256;10.978;2023-04-25T08:01:33;9.15;;;4.78;;
26574;SDS011;67165;50.256;10.978;2023-04-25T08:04:02;10.15;;;4.88;;
26574;SDS011;67165;50.256;10.978;2023-04-25T08:06:30;8.82;;;4.72;;
26574;SDS011;67165;50.256;10.978;2023-04-25T08:09:01;9.68;;;4.20;;
26574;SDS011;67165;50.256;10.978;2023-04-25T08:11:27;9.10;;;4.50;;
26574;SDS011;67165;50.256;10.978;2023-04-25T08:13:52;6.53;;;3.47;;
26574;SDS011;67165;50.256;10.978;2023-04-25T08:16:18;6.40;;;3.40;;
26574;SDS011;67165;50.256;10.978;2023-04-25T08:18:44;8.82;;;3.15;;
26574;SDS011;67165;50.256;10.978;2023-04-25T08:21:13;7.75;;;3.55;;
26574;SDS011;67165;50.256;10.978;2023-04-25T08:23:39;6.55;;;3.35;;
26574;SDS011;67165;50.256;10.978;2023-04-25T08:26:13;8.20;;;3.28;;
26574;SDS011;67165;50.256;10.978;2023-04-25T08:28:39;7.25;;;3.42;;
26574;SDS011;67165;50.256;10.978;2023-04-25T08:31:04;7.07;;;3.25;;
26574;SDS011;67165;50.256;10.978;2023-04-25T08:33:32;7.30;;;3.40;;
26574;SDS011;67165;50.256;10.978;2023-04-25T08:35:58;9.50;;;2.92;;
26574;SDS011;67165;50.256;10.978;2023-04-25T08:38:24;5.18;;;2.70;;
26574;SDS011;67165;50.256;10.978;2023-04-25T08:40:53;5.20;;;2.78;;
26574;SDS011;67165;50.256;10.978;2023-04-25T08:43:20;7.43;;;2.90;;
26574;SDS011;67165;50.256;10.978;2023-04-25T08:45:50;7.07;;;2.88;;
26574;SDS011;67165;50.256;10.978;2023-04-25T08:48:21;4.68;;;2.70;;
26574;SDS011;67165;50.256;10.978;2023-04-25T08:50:52;6.68;;;3.22;;
26574;SDS011;67165;50.256;10.978;2023-04-25T08:53:31;5.75;;;3.03;;
26574;SDS011;67165;50.256;10.978;2023-04-25T08:55:59;5.00;;;2.78;;
26574;SDS011;67165;50.256;10.978;2023-04-25T08:58:31;4.88;;;2.80;;
26574;SDS011;67165;50.256;10.978;2023-04-25T09:00:57;6.38;;;2.30;;
26574;SDS011;67165;50.256;10.978;2023-04-25T09:03:23;4.53;;;2.30;;
26574;SDS011;67165;50.256;10.978;2023-04-25T09:05:51;3.88;;;2.50;;
26574;SDS011;67165;50.256;10.978;2023-04-25T09:08:17;5.05;;;2.10;;
26574;SDS011;67165;50.256;10.978;2023-04-25T09:10:47;5.20;;;2.28;;
26574;SDS011;67165;50.256;10.978;2023-04-25T09:13:20;6.15;;;2.55;;
26574;SDS011;67165;50.256;10.978;2023-04-25T09:15:51;3.42;;;2.30;;
26574;SDS011;67165;50.256;10.978;2023-04-25T09:18:25;4.38;;;2.28;;
26574;SDS011;67165;50.256;10.978;2023-04-25T09:21:04;4.93;;;2.03;;
26574;SDS011;67165;50.256;10.978;2023-04-25T09:23:48;5.65;;;2.00;;
26574;SDS011;67165;50.256;10.978;2023-04-25T09:26:17;2.80;;;1.80;;
26574;SDS011;67165;50.256;10.978;2023-04-25T09:28:46;4.75;;;1.88;;
26574;SDS011;67165;50.256;10.978;2023-04-25T09:31:24;2.13;;;1.65;;
26574;SDS011;67165;50.256;10.978;2023-04-25T09:33:50;2.60;;;1.85;;
26574;SDS011;67165;50.256;10.978;2023-04-25T09:36:27;6.70;;;1.80;;
26574;SDS011;67165;50.256;10.978;2023-04-25T09:38:53;3.83;;;1.63;;
26574;SDS011;67165;50.256;10.978;2023-04-25T09:41:23;2.28;;;1.60;;
26574;SDS011;67165;50.256;10.978;2023-04-25T09:43:49;2.22;;;1.50;;
26574;SDS011;67165;50.256;10.978;2023-04-25T09:46:16;4.57;;;1.77;;
26574;SDS011;67165;50.256;10.978;2023-04-25T09:48:50;3.13;;;1.73;;
26574;SDS011;67165;50.256;10.978;2023-04-25T09:51:19;2.78;;;2.00;;
26574;SDS011;67165;50.256;10.978;2023-04-25T09:53:45;2.53;;;1.80;;
26574;SDS011;67165;50.256;10.978;2023-04-25T09:56:15;3.95;;;2.35;;
26574;SDS011;67165;50.256;10.978;2023-04-25T09:58:41;6.65;;;2.35;;
26574;SDS011;67165;50.256;10.978;2023-04-25T10:01:10;5.03;;;2.17;;
26574;SDS011;67165;50.256;10.978;2023-04-25T10:03:44;3.28;;;2.30;;
26574;SDS011;67165;50.256;10.978;2023-04-25T10:06:18;2.45;;;1.90;;
26574;SDS011;67165;50.256;10.978;2023-04-25T10:08:48;2.83;;;1.95;;
26574;SDS011;67165;50.256;10.978;2023-04-25T10:11:16;4.10;;;2.50;;
26574;SDS011;67165;50.256;10.978;2023-04-25T10:13:42;3.85;;;2.22;;
26574;SDS011;67165;50.256;10.978;2023-04-25T10:16:09;8.18;;;2.45;;
26574;SDS011;67165;50.256;10.978;2023-04-25T10:18:36;3.55;;;1.90;;
26574;SDS011;67165;50.256;10.978;2023-04-25T10:21:10;4.10;;;2.40;;
26574;SDS011;67165;50.256;10.978;2023-04-25T10:23:37;5.03;;;2.13;;
26574;SDS011;67165;50.256;10.978;2023-04-25T10:26:03;3.53;;;2.40;;
26574;SDS011;67165;50.256;10.978;2023-04-25T10:28:29;5.63;;;2.20;;
26574;SDS011;67165;50.256;10.978;2023-04-25T10:31:24;5.05;;;2.33;;
26574;SDS011;67165;50.256;10.978;2023-04-25T10:33:54;5.70;;;2.30;;
26574;SDS011;67165;50.256;10.978;2023-04-25T10:36:26;3.72;;;2.10;;
26574;SDS011;67165;50.256;10.978;2023-04-25T10:38:56;2.88;;;2.20;;
26574;SDS011;67165;50.256;10.978;2023-04-25T10:41:31;3.90;;;2.17;;
26574;SDS011;67165;50.256;10.978;2023-04-25T10:44:10;3.60;;;2.30;;
26574;SDS011;67165;50.256;10.978;2023-04-25T10:46:44;4.38;;;2.70;;
26574;SDS011;67165;50.256;10.978;2023-04-25T10:49:10;3.25;;;2.40;;
26574;SDS011;67165;50.256;10.978;2023-04-25T10:51:58;5.60;;;2.97;;
26574;SDS011;67165;50.256;10.978;2023-04-25T11:02:57;4.85;;;2.83;;
26574;SDS011;67165;50.256;10.978;2023-04-25T11:05:32;4.43;;;2.65;;
26574;SDS011;67165;50.256;10.978;2023-04-25T11:07:59;5.22;;;2.53;;
26574;SDS011;67165;50.256;10.978;2023-04-25T11:10:32;5.35;;;2.80;;
26574;SDS011;67165;50.256;10.978;2023-04-25T11:13:01;3.40;;;2.55;;
26574;SDS011;67165;50.256;10.978;2023-04-25T11:15:27;4.32;;;2.65;;
26574;SDS011;67165;50.256;10.978;2023-04-25T11:17:54;4.40;;;2.55;;
26574;SDS011;67165;50.256;10.978;2023-04-25T11:20:20;6.13;;;2.40;;
26574;SDS011;67165;50.256;10.978;2023-04-25T11:22:47;8.00;;;2.67;;
26574;SDS011;67165;50.256;10.978;2023-04-25T11:25:14;3.35;;;2.20;;
26574;SDS011;67165;50.256;10.978;2023-04-25T11:27:50;5.68;;;3.00;;
26574;SDS011;67165;50.256;10.978;2023-04-25T11:30:17;5.00;;;2.70;;
26574;SDS011;67165;50.256;10.978;2023-04-25T11:32:44;3.72;;;2.80;;
26574;SDS011;67165;50.256;10.978;2023-04-25T11:35:13;3.65;;;2.50;;
26574;SDS011;67165;50.256;10.978;2023-04-25T11:37:43;4.82;;;2.60;;
26574;SDS011;67165;50.256;10.978;2023-04-25T11:40:09;3.85;;;2.67;;
26574;SDS011;67165;50.256;10.978;2023-04-25T11:42:37;3.10;;;2.30;;
26574;SDS011;67165;50.256;10.978;2023-04-25T11:45:03;3.10;;;2.22;;
26574;SDS011;67165;50.256;10.978;2023-04-25T11:47:31;3.30;;;2.20;;
26574;SDS011;67165;50.256;10.978;2023-04-25T11:50:01;3.00;;;1.85;;
26574;SDS011;67165;50.256;10.978;2023-04-25T11:52:38;2.70;;;1.88;;
26574;SDS011;67165;50.256;10.978;2023-04-25T11:55:16;4.25;;;1.77;;
26574;SDS011;67165;50.256;10.978;2023-04-25T11:57:48;3.83;;;1.60;;
26574;SDS011;67165;50.256;10.978;2023-04-25T12:00:18;3.75;;;2.10;;
26574;SDS011;67165;50.256;10.978;2023-04-25T12:02:46;2.85;;;2.00;;
26574;SDS011;67165;50.256;10.978;2023-04-25T12:05:13;3.60;;;2.20;;
26574;SDS011;67165;50.256;10.978;2023-04-25T12:07:40;2.65;;;2.00;;
26574;SDS011;67165;50.256;10.978;2023-04-25T12:10:13;4.22;;;1.90;;
26574;SDS011;67165;50.256;10.978;2023-04-25T12:12:43;3.30;;;2.03;;
26574;SDS011;67165;50.256;10.978;2023-04-25T12:15:17;4.47;;;2.00;;
26574;SDS011;67165;50.256;10.978;2023-04-25T12:17:53;2.17;;;1.80;;
26574;SDS011;67165;50.256;10.978;2023-04-25T12:20:28;3.28;;;2.13;;
26574;SDS011;67165;50.256;10.978;2023-04-25T12:22:59;2.70;;;1.88;;
26574;SDS011;67165;50.256;10.978;2023-04-25T12:25:38;3.35;;;2.00;;
26574;SDS011;67165;50.256;10.978;2023-04-25T12:33:26;3.33;;;2.30;;
26574;SDS011;67165;50.256;10.978;2023-04-25T12:35:53;4.53;;;1.83;;
26574;SDS011;67165;50.256;10.978;2023-04-25T12:38:29;7.03;;;2.55;;
26574;SDS011;67165;50.256;10.978;2023-04-25T12:40:59;3.67;;;2.15;;
26574;SDS011;67165;50.256;10.978;2023-04-25T12:43:25;3.08;;;2.00;;
26574;SDS011;67165;50.256;10.978;2023-04-25T12:45:54;4.65;;;2.10;;
26574;SDS011;67165;50.256;10.978;2023-04-25T12:48:20;4.88;;;2.00;;
26574;SDS011;67165;50.256;10.978;2023-04-25T12:50:47;3.83;;;2.10;;
26574;SDS011;67165;50.256;10.978;2023-04-25T12:53:14;5.38;;;2.13;;
26574;SDS011;67165;50.256;10.978;2023-04-25T12:55:44;5.65;;;2.30;;
26574;SDS011;67165;50.256;10.978;2023-04-25T12:58:14;3.97;;;2.30;;
26574;SDS011;67165;50.256;10.978;2023-04-25T13:00:40;5.13;;;2.17;;
26574;SDS011;67165;50.256;10.978;2023-04-25T13:03:07;5.40;;;2.10;;
26574;SDS011;67165;50.256;10.978;2023-04-25T13:05:33;6.47;;;2.33;;
26574;SDS011;67165;50.256;10.978;2023-04-25T13:07:59;4.20;;;2.63;;
26574;SDS011;67165;50.256;10.978;2023-04-25T13:10:24;5.68;;;2.33;;
26574;SDS011;67165;50.256;10.978;2023-04-25T13:12:50;7.55;;;2.53;;
26574;SDS011;67165;50.256;10.978;2023-04-25T13:15:16;8.07;;;3.10;;
26574;SDS011;67165;50.256;10.978;2023-04-25T13:17:44;13.20;;;2.90;;
26574;SDS011;67165;50.256;10.978;2023-04-25T13:20:10;7.47;;;2.72;;
26574;SDS011;67165;50.256;10.978;2023-04-25T13:22:47;6.03;;;2.38;;
26574;SDS011;67165;50.256;10.978;2023-04-25T13:25:13;6.68;;;2.50;;
26574;SDS011;67165;50.256;10.978;2023-04-25T13:27:38;7.45;;;2.70;;
26574;SDS011;67165;50.256;10.978;2023-04-25T13:30:05;8.90;;;2.45;;
26574;SDS011;67165;50.256;10.978;2023-04-25T13:32:35;6.18;;;2.67;;
26574;SDS011;67165;50.256;10.978;2023-04-25T13:35:06;7.47;;;2.97;;
26574;SDS011;67165;50.256;10.978;2023-04-25T13:37:37;8.27;;;2.67;;
26574;SDS011;67165;50.256;10.978;2023-04-25T13:40:09;7.85;;;3.28;;
26574;SDS011;67165;50.256;10.978;2023-04-25T13:42:45;10.45;;;3.30;;
26574;SDS011;67165;50.256;10.978;2023-04-25T13:45:11;12.55;;;2.88;;
26574;SDS011;67165;50.256;10.978;2023-04-25T13:47:39;11.55;;;3.03;;
26574;SDS011;67165;50.256;10.978;2023-04-25T13:50:08;5.97;;;2.80;;
26574;SDS011;67165;50.256;10.978;2023-04-25T13:52:34;11.43;;;3.67;;
26574;SDS011;67165;50.256;10.978;2023-04-25T13:55:13;11.50;;;3.60;;
26574;SDS011;67165;50.256;10.978;2023-04-25T13:57:38;10.25;;;3.75;;
26574;SDS011;67165;50.256;10.978;2023-04-25T14:00:07;21.50;;;10.45;;
26574;SDS011;67165;50.256;10.978;2023-04-25T14:02:36;11.57;;;4.93;;
26574;SDS011;67165;50.256;10.978;2023-04-25T14:05:02;7.07;;;3.67;;
26574;SDS011;67165;50.256;10.978;2023-04-25T14:07:28;8.55;;;3.30;;
26574;SDS011;67165;50.256;10.978;2023-04-25T14:09:55;9.77;;;3.90;;
26574;SDS011;67165;50.256;10.978;2023-04-25T14:12:22;21.92;;;12.32;;
26574;SDS011;67165;50.256;10.978;2023-04-25T14:14:48;54.22;;;29.30;;
26574;SDS011;67165;50.256;10.978;2023-04-25T14:17:17;18.35;;;8.77;;
26574;SDS011;67165;50.256;10.978;2023-04-25T14:19:43;49.10;;;26.48;;
26574;SDS011;67165;50.256;10.978;2023-04-25T14:22:10;37.60;;;22.58;;
26574;SDS011;67165;50.256;10.978;2023-04-25T14:24:36;18.42;;;10.52;;
26574;SDS011;67165;50.256;10.978;2023-04-25T14:27:03;21.05;;;10.38;;
26574;SDS011;67165;50.256;10.978;2023-04-25T14:29:29;17.98;;;8.75;;
26574;SDS011;67165;50.256;10.978;2023-04-25T14:31:55;13.55;;;6.63;;
26574;SDS011;67165;50.256;10.978;2023-04-25T14:34:22;14.50;;;6.43;;
26574;SDS011;67165;50.256;10.978;2023-04-25T14:36:57;15.85;;;4.47;;
26574;SDS011;67165;50.256;10.978;2023-04-25T14:39:26;11.57;;;4.20;;
26574;SDS011;67165;50.256;10.978;2023-04-25T14:41:51;9.23;;;3.97;;